Time;durP1;ratioP1;P1;durP2;ratioP2;P2;SDS_P1;SDS_P2;PMS_P1;PMS_P2;Temp;Humidity;BMP_temperature;BMP_pressure;BME280_temperature;BME280_humidity;BME280_pressure;Samples;Min_cycle;Max_cycle;Signal;HPM_P1;HPM_P2
2022/03/04 00:02:13;;;;;;;26.80;17.30;;;0.20;99.90;;;;;;4921308;29;20195;-36
2022/03/04 00:04:40;;;;;;;28.80;16.57;;;0.20;99.90;;;;;;4920853;29;20181;-36
2022/03/04 00:07:06;;;;;;;30.37;16.57;;;0.20;99.90;;;;;;4920978;28;20178;-36
2022/03/04 00:09:33;;;;;;;26.63;16.40;;;0.10;99.90;;;;;;4920701;28;20198;-36
2022/03/04 00:12:02;;;;;;;24.40;16.27;;;0.10;99.90;;;;;;4939746;28;20722;-36
2022/03/04 00:14:28;;;;;;;26.47;16.60;;;0.10;99.90;;;;;;4955772;28;20194;-36
2022/03/04 00:16:54;;;;;;;28.20;16.10;;;0.10;99.90;;;;;;4955603;28;20178;-36
2022/03/04 00:19:20;;;;;;;27.00;15.97;;;0.00;99.90;;;;;;4954956;28;20232;-36
2022/03/04 00:21:49;;;;;;;24.30;14.97;;;0.00;99.90;;;;;;4955623;28;20236;-35
2022/03/04 00:24:16;;;;;;;25.07;15.90;;;-0.10;99.90;;;;;;4972957;28;20177;-36
2022/03/04 00:26:42;;;;;;;27.03;16.23;;;-0.10;99.90;;;;;;4939711;28;20205;-36
2022/03/04 00:29:09;;;;;;;31.00;16.40;;;-0.20;99.90;;;;;;4955356;28;20208;-36
2022/03/04 00:31:35;;;;;;;27.03;16.43;;;-0.20;99.90;;;;;;4939333;28;20185;-36
2022/03/04 00:34:02;;;;;;;30.30;17.43;;;-0.20;99.90;;;;;;4939310;28;20244;-36
2022/03/04 00:36:28;;;;;;;26.97;15.33;;;-0.20;99.90;;;;;;4939334;28;20186;-36
2022/03/04 00:38:56;;;;;;;26.20;16.40;;;-0.20;99.90;;;;;;4938373;28;20209;-37
2022/03/04 00:41:23;;;;;;;28.30;15.97;;;-0.20;99.90;;;;;;4940691;29;20182;-35
2022/03/04 00:43:50;;;;;;;30.47;16.47;;;-0.20;99.90;;;;;;4920377;29;20212;-36
2022/03/04 00:46:17;;;;;;;27.10;15.97;;;-0.30;99.90;;;;;;4920181;29;20192;-36
2022/03/04 00:48:44;;;;;;;24.13;14.83;;;-0.30;99.90;;;;;;4919926;29;20220;-36
2022/03/04 00:51:12;;;;;;;25.93;16.03;;;-0.40;99.90;;;;;;4920254;29;20195;-36
2022/03/04 00:53:39;;;;;;;25.93;15.73;;;-0.50;99.90;;;;;;4920339;29;20654;-38
2022/03/04 00:56:06;;;;;;;25.63;15.57;;;-0.50;99.90;;;;;;4920301;29;20298;-36
2022/03/04 00:58:37;;;;;;;25.50;15.07;;;-0.50;99.90;;;;;;4920152;29;20224;-38
2022/03/04 01:01:04;;;;;;;26.57;16.50;;;-0.50;99.90;;;;;;4919562;29;20177;-36
2022/03/04 01:03:30;;;;;;;24.83;14.90;;;-0.50;99.90;;;;;;4919251;29;20233;-36
2022/03/04 01:05:57;;;;;;;25.50;15.30;;;-0.60;99.90;;;;;;4919590;29;20249;-36
2022/03/04 01:08:23;;;;;;;27.47;16.13;;;-0.60;99.90;;;;;;4919929;29;20205;-35
2022/03/04 01:10:49;;;;;;;26.20;16.07;;;-0.70;99.90;;;;;;4935634;29;20193;-36
2022/03/04 01:13:15;;;;;;;25.07;15.37;;;-0.70;99.90;;;;;;4920578;29;20216;-36
2022/03/04 01:15:41;;;;;;;28.00;16.07;;;-0.70;99.90;;;;;;4920388;29;20236;-36
2022/03/04 01:18:07;;;;;;;27.00;16.70;;;-0.80;99.90;;;;;;4935797;29;20217;-36
2022/03/04 01:20:33;;;;;;;28.03;16.13;;;-0.90;99.90;;;;;;4920301;29;20634;-36
2022/03/04 01:23:00;;;;;;;26.77;16.17;;;-1.00;99.90;;;;;;4936022;29;20185;-35
2022/03/04 01:25:26;;;;;;;29.17;16.73;;;-1.00;99.90;;;;;;4920475;29;20184;-37
2022/03/04 01:27:52;;;;;;;31.23;17.00;;;-1.10;99.90;;;;;;4920050;29;20205;-37
2022/03/04 01:30:18;;;;;;;26.80;16.50;;;-1.10;99.90;;;;;;4920236;28;20193;-36
2022/03/04 01:32:45;;;;;;;28.23;16.00;;;-1.10;99.90;;;;;;4920259;29;20308;-36
2022/03/04 01:35:12;;;;;;;27.63;15.73;;;-1.00;99.90;;;;;;4920464;29;20272;-35
2022/03/04 01:37:39;;;;;;;33.20;16.93;;;-1.00;99.90;;;;;;4920254;29;20220;-36
2022/03/04 01:40:07;;;;;;;27.37;16.17;;;-1.10;99.90;;;;;;4936033;29;20190;-36
2022/03/04 01:42:33;;;;;;;27.60;15.93;;;-1.10;99.90;;;;;;4919884;29;20182;-36
2022/03/04 01:45:00;;;;;;;27.33;15.77;;;-1.10;99.90;;;;;;4935648;29;20193;-35
2022/03/04 01:47:26;;;;;;;26.83;16.33;;;-1.20;99.90;;;;;;4919484;28;20189;-37
2022/03/04 01:49:53;;;;;;;25.60;15.33;;;-1.20;99.90;;;;;;4919667;29;20208;-37
2022/03/04 01:52:21;;;;;;;25.80;15.57;;;-1.10;99.90;;;;;;4919866;29;20192;-37
2022/03/04 01:54:47;;;;;;;28.90;15.53;;;-1.20;99.90;;;;;;4919847;29;20193;-37
2022/03/04 01:57:13;;;;;;;24.70;15.23;;;-1.20;99.90;;;;;;4935649;28;20280;-38
2022/03/04 01:59:39;;;;;;;27.77;16.03;;;-1.20;99.90;;;;;;4934969;29;20188;-37
2022/03/04 02:02:05;;;;;;;29.17;15.10;;;-1.20;99.90;;;;;;4935263;29;20182;-37
2022/03/04 02:04:31;;;;;;;24.43;14.77;;;-1.20;99.90;;;;;;4919473;29;20195;-37
2022/03/04 02:06:56;;;;;;;26.77;14.87;;;-1.20;99.90;;;;;;4935412;29;20181;-37
2022/03/04 02:09:22;;;;;;;27.50;16.33;;;-1.20;99.90;;;;;;4919213;29;20269;-37
2022/03/04 02:11:48;;;;;;;24.87;14.97;;;-1.30;99.90;;;;;;4935178;28;20190;-38
2022/03/04 02:14:15;;;;;;;25.80;16.23;;;-1.40;99.90;;;;;;4919538;29;20182;-38
2022/03/04 02:16:45;;;;;;;27.10;15.90;;;-1.50;99.90;;;;;;4952480;29;20186;-37
2022/03/04 02:19:11;;;;;;;30.37;16.87;;;-1.50;99.90;;;;;;4922339;29;20300;-37
2022/03/04 02:21:50;;;;;;;28.97;16.13;;;-1.60;99.90;;;;;;4938847;29;20185;-37
2022/03/04 02:24:17;;;;;;;26.13;15.20;;;-1.60;99.90;;;;;;4938651;28;20178;-38
2022/03/04 02:26:44;;;;;;;24.73;15.07;;;-1.60;99.90;;;;;;4922904;29;20177;-37
2022/03/04 02:29:10;;;;;;;28.93;16.93;;;-1.70;99.90;;;;;;4938455;29;20205;-38
2022/03/04 02:31:36;;;;;;;26.93;16.53;;;-1.60;99.90;;;;;;4922680;29;20561;-38
2022/03/04 02:34:02;;;;;;;25.77;15.00;;;-1.60;99.90;;;;;;4938790;29;20189;-38
2022/03/04 02:36:28;;;;;;;26.00;15.43;;;-1.70;99.90;;;;;;4938808;29;20212;-41
2022/03/04 02:38:54;;;;;;;26.30;15.33;;;-1.80;99.90;;;;;;4937969;29;20213;-39
2022/03/04 02:41:20;;;;;;;23.53;15.23;;;-1.80;99.90;;;;;;4938191;29;20199;-38
2022/03/04 02:43:46;;;;;;;28.63;16.07;;;-1.80;99.90;;;;;;4922935;29;20182;-40
2022/03/04 02:46:13;;;;;;;26.73;15.53;;;-1.90;99.90;;;;;;4923197;29;20280;-41
2022/03/04 02:48:39;;;;;;;29.23;16.10;;;-1.90;99.90;;;;;;4938862;29;20213;-38
2022/03/04 02:51:06;;;;;;;30.00;17.00;;;-2.10;99.90;;;;;;4922064;29;20722;-41
2022/03/04 02:53:32;;;;;;;26.77;16.60;;;-2.20;99.90;;;;;;4922022;29;20185;-38
2022/03/04 02:55:58;;;;;;;28.03;14.97;;;-2.30;99.90;;;;;;4922054;29;20216;-40
2022/03/04 02:58:24;;;;;;;27.77;15.17;;;-2.40;99.90;;;;;;4938287;29;20216;-39
2022/03/04 03:00:52;;;;;;;26.83;15.47;;;-2.60;99.90;;;;;;4937724;29;20189;-40
2022/03/04 03:03:18;;;;;;;25.87;14.73;;;-2.60;99.90;;;;;;4938969;29;20181;-42
2022/03/04 03:05:44;;;;;;;25.07;14.87;;;-2.60;99.90;;;;;;4937878;29;20182;-38
2022/03/04 03:08:11;;;;;;;24.93;14.93;;;-2.60;99.90;;;;;;4955253;28;20204;-38
2022/03/04 03:10:37;;;;;;;24.13;14.07;;;-2.50;99.90;;;;;;4921749;29;20189;-38
2022/03/04 03:13:04;;;;;;;24.43;13.87;;;-2.50;99.90;;;;;;4922082;29;20201;-38
2022/03/04 03:15:30;;;;;;;26.13;14.03;;;-2.40;99.90;;;;;;4955531;28;20177;-41
2022/03/04 03:17:56;;;;;;;23.97;13.93;;;-2.30;99.90;;;;;;4921846;29;20243;-38
2022/03/04 03:20:22;;;;;;;21.73;13.90;;;-2.30;99.90;;;;;;4937365;28;20180;-38
2022/03/04 03:22:49;;;;;;;22.97;13.60;;;-2.30;99.90;;;;;;4936775;29;20190;-40
2022/03/04 03:25:15;;;;;;;21.13;13.13;;;-2.20;99.90;;;;;;4921619;29;20277;-41
2022/03/04 03:27:41;;;;;;;24.67;14.17;;;-2.20;99.90;;;;;;4921458;29;20213;-39
2022/03/04 03:30:08;;;;;;;23.83;14.20;;;-2.30;99.90;;;;;;4921334;29;20185;-38
2022/03/04 03:32:34;;;;;;;24.50;13.80;;;-2.30;99.90;;;;;;4937440;29;20245;-38
2022/03/04 03:35:01;;;;;;;20.47;12.67;;;-2.30;99.90;;;;;;4921470;29;20189;-39
2022/03/04 03:37:27;;;;;;;24.40;12.93;;;-2.40;99.90;;;;;;4921649;28;20212;-37
2022/03/04 03:39:53;;;;;;;22.80;13.87;;;-2.40;99.90;;;;;;4921223;28;20192;-37
2022/03/04 03:42:19;;;;;;;24.97;14.10;;;-2.40;99.90;;;;;;4921658;29;20204;-37
2022/03/04 03:44:45;;;;;;;24.80;14.30;;;-2.50;99.90;;;;;;4937368;29;20577;-38
2022/03/04 03:47:11;;;;;;;26.30;14.37;;;-2.50;99.90;;;;;;4921553;28;20194;-40
2022/03/04 03:49:38;;;;;;;26.20;14.83;;;-2.40;99.90;;;;;;4937029;28;20185;-39
2022/03/04 03:52:05;;;;;;;23.97;14.40;;;-2.40;99.90;;;;;;4937024;29;20244;-42
2022/03/04 03:54:31;;;;;;;22.17;13.80;;;-2.40;99.90;;;;;;4921043;29;20185;-38
2022/03/04 03:56:56;;;;;;;30.00;15.07;;;-2.40;99.90;;;;;;4921084;29;20180;-40
2022/03/04 03:59:22;;;;;;;25.30;14.47;;;-2.50;99.90;;;;;;4921148;29;20288;-40
2022/03/04 04:01:49;;;;;;;29.30;14.53;;;-2.50;99.90;;;;;;4936927;29;20185;-40
2022/03/04 04:04:17;;;;;;;23.93;14.20;;;-2.50;99.90;;;;;;4920778;29;20192;-37
2022/03/04 04:06:44;;;;;;;25.27;14.73;;;-2.50;99.90;;;;;;4921562;29;20181;-39
2022/03/04 04:09:11;;;;;;;26.40;15.27;;;-2.60;99.90;;;;;;4920597;29;20224;-38
2022/03/04 04:11:38;;;;;;;26.90;15.20;;;-2.60;99.90;;;;;;4936489;29;20196;-42
2022/03/04 04:14:05;;;;;;;27.13;15.00;;;-2.60;99.90;;;;;;4937175;29;20189;-38
2022/03/04 04:16:31;;;;;;;27.93;15.47;;;-2.60;99.90;;;;;;4936829;29;20195;-39
2022/03/04 04:18:57;;;;;;;26.10;15.77;;;-2.70;99.90;;;;;;4920261;29;20213;-38
2022/03/04 04:21:25;;;;;;;25.57;14.93;;;-2.70;99.90;;;;;;4921380;29;20205;-37
2022/03/04 04:23:52;;;;;;;22.67;14.20;;;-2.70;99.90;;;;;;4920822;29;20185;-38
2022/03/04 04:26:19;;;;;;;25.13;14.50;;;-2.70;99.90;;;;;;4920731;29;20213;-38
2022/03/04 04:28:45;;;;;;;23.50;13.07;;;-2.70;99.90;;;;;;4936150;29;20248;-42
2022/03/04 04:31:11;;;;;;;22.77;14.03;;;-2.70;99.90;;;;;;4953842;29;20538;-37
2022/03/04 04:33:37;;;;;;;24.60;14.10;;;-2.70;99.90;;;;;;4920373;28;20220;-38
2022/03/04 04:36:03;;;;;;;26.63;14.33;;;-2.70;99.90;;;;;;4936266;29;20216;-40
2022/03/04 04:38:29;;;;;;;24.93;13.10;;;-2.70;99.90;;;;;;4920059;29;20217;-37
2022/03/04 04:40:55;;;;;;;23.70;14.10;;;-2.80;99.90;;;;;;4919676;29;20229;-40
2022/03/04 04:43:22;;;;;;;25.07;14.13;;;-2.80;99.90;;;;;;4920555;29;20189;-38
2022/03/04 04:45:47;;;;;;;23.50;13.17;;;-2.80;99.90;;;;;;4936097;29;20192;-38
2022/03/04 04:48:14;;;;;;;25.50;14.03;;;-2.80;99.90;;;;;;4920271;28;20209;-38
2022/03/04 04:50:40;;;;;;;22.53;13.90;;;-2.70;99.90;;;;;;4920138;29;20184;-37
2022/03/04 04:53:05;;;;;;;24.17;13.63;;;-2.80;99.90;;;;;;4920546;29;20177;-37
2022/03/04 04:55:31;;;;;;;23.93;13.90;;;-2.80;99.90;;;;;;4936405;29;20185;-39
2022/03/04 04:57:58;;;;;;;22.53;13.70;;;-2.90;99.90;;;;;;4935853;29;20311;-38
2022/03/04 05:00:24;;;;;;;24.33;14.60;;;-2.90;99.90;;;;;;4952943;28;20177;-41
2022/03/04 05:02:50;;;;;;;27.00;14.43;;;-2.90;99.90;;;;;;4935878;29;20550;-38
2022/03/04 05:05:16;;;;;;;24.50;13.33;;;-3.00;99.90;;;;;;4920098;29;20189;-37
2022/03/04 05:07:41;;;;;;;24.60;14.57;;;-3.10;99.90;;;;;;4935943;29;20726;-39
2022/03/04 05:10:08;;;;;;;24.00;13.10;;;-3.10;99.90;;;;;;4919218;29;20654;-42
2022/03/04 05:12:34;;;;;;;24.63;13.73;;;-3.20;99.90;;;;;;4920263;29;20557;-42
2022/03/04 05:15:00;;;;;;;21.90;13.33;;;-3.30;99.90;;;;;;4935531;29;20651;-38
2022/03/04 05:17:26;;;;;;;26.77;15.33;;;-3.30;99.90;;;;;;4920262;28;20201;-37
2022/03/04 05:19:52;;;;;;;26.37;15.70;;;-3.30;99.90;;;;;;4919550;29;20295;-38
2022/03/04 05:22:18;;;;;;;28.43;15.40;;;-3.40;99.90;;;;;;4919798;29;20229;-38
2022/03/04 05:24:44;;;;;;;23.97;14.03;;;-3.50;99.90;;;;;;4936413;29;20177;-43
2022/03/04 05:27:10;;;;;;;22.43;13.90;;;-3.50;99.90;;;;;;4936126;28;20185;-39
2022/03/04 05:29:36;;;;;;;27.33;14.47;;;-3.50;99.90;;;;;;4919516;28;20188;-38
2022/03/04 05:32:02;;;;;;;25.60;14.13;;;-3.60;99.90;;;;;;4919823;29;20204;-38
2022/03/04 05:34:28;;;;;;;27.83;15.07;;;-3.60;99.90;;;;;;4935287;29;20185;-40
2022/03/04 05:36:54;;;;;;;23.47;13.93;;;-3.50;99.90;;;;;;4919800;29;20204;-38
2022/03/04 05:39:20;;;;;;;24.77;15.00;;;-3.50;99.90;;;;;;4919378;29;20209;-38
2022/03/04 05:41:46;;;;;;;27.60;15.27;;;-3.50;99.90;;;;;;4919711;29;20193;-38
2022/03/04 05:44:12;;;;;;;26.23;14.47;;;-3.50;99.90;;;;;;4919640;28;20181;-38
2022/03/04 05:46:38;;;;;;;26.17;14.53;;;-3.60;99.90;;;;;;4919731;29;20205;-38
2022/03/04 05:49:04;;;;;;;25.13;14.77;;;-3.60;99.90;;;;;;4919257;29;20264;-40
2022/03/04 05:51:31;;;;;;;24.73;13.93;;;-3.60;99.90;;;;;;4919736;29;20296;-37
2022/03/04 05:53:56;;;;;;;28.70;15.63;;;-3.60;99.90;;;;;;4938597;29;20188;-44
2022/03/04 05:56:22;;;;;;;28.03;14.77;;;-3.60;99.90;;;;;;4923415;29;20181;-38
2022/03/04 05:58:48;;;;;;;27.07;15.87;;;-3.60;99.90;;;;;;4923012;28;20248;-38
2022/03/04 06:01:14;;;;;;;26.77;14.73;;;-3.60;99.90;;;;;;4938721;29;20252;-37
2022/03/04 06:03:41;;;;;;;28.83;16.03;;;-3.60;99.90;;;;;;4922976;29;20662;-38
2022/03/04 06:06:10;;;;;;;28.90;15.70;;;-3.50;99.90;;;;;;4907601;29;20205;-38
2022/03/04 06:08:36;;;;;;;28.23;15.03;;;-3.40;99.90;;;;;;4922986;29;20205;-40
2022/03/04 06:11:02;;;;;;;27.90;15.97;;;-3.40;99.90;;;;;;4923218;29;20197;-39
2022/03/04 06:13:28;;;;;;;26.17;15.00;;;-3.40;99.90;;;;;;4955956;28;20299;-39
2022/03/04 06:15:57;;;;;;;28.53;16.40;;;-3.40;99.90;;;;;;4956149;28;20204;-41
2022/03/04 06:18:24;;;;;;;30.43;16.10;;;-3.40;99.90;;;;;;4938438;29;20217;-38
2022/03/04 06:20:50;;;;;;;27.60;15.27;;;-3.40;99.90;;;;;;4937915;29;20185;-38
2022/03/04 06:23:16;;;;;;;26.83;15.60;;;-3.40;99.90;;;;;;4923077;29;20264;-37
2022/03/04 06:25:42;;;;;;;26.53;14.20;;;-3.40;99.90;;;;;;4922523;29;20185;-37
2022/03/04 06:28:08;;;;;;;25.00;14.37;;;-3.40;99.90;;;;;;4922390;29;20216;-40
2022/03/04 06:30:36;;;;;;;23.70;13.73;;;-3.40;99.90;;;;;;4922672;29;20244;-39
2022/03/04 06:35:48;;;;;;;24.60;14.00;;;-3.40;99.90;;;;;;4938309;29;20192;-38
2022/03/04 06:38:17;;;;;;;30.17;15.00;;;-3.30;99.90;;;;;;4921658;29;20257;-40
2022/03/04 06:40:44;;;;;;;26.83;14.70;;;-3.30;99.90;;;;;;4931746;28;20286;-38
2022/03/04 06:43:10;;;;;;;26.10;14.93;;;-3.30;99.90;;;;;;4941701;28;20296;-39
2022/03/04 06:45:38;;;;;;;27.50;15.97;;;-3.20;99.90;;;;;;4941348;28;20276;-40
2022/03/04 06:48:04;;;;;;;28.93;15.80;;;-3.20;99.90;;;;;;4941847;28;20653;-37
2022/03/04 06:50:30;;;;;;;64.57;28.23;;;-3.10;99.90;;;;;;4941214;28;20184;-38
2022/03/04 06:52:56;;;;;;;49.80;25.40;;;-2.90;99.90;;;;;;4940929;28;20195;-39
2022/03/04 06:55:22;;;;;;;44.57;23.43;;;-2.80;99.90;;;;;;4941523;28;20185;-42
2022/03/04 06:57:50;;;;;;;38.47;21.03;;;-2.70;99.90;;;;;;4917883;28;20217;-39
2022/03/04 07:00:18;;;;;;;35.00;19.27;;;-2.60;99.90;;;;;;4951900;28;20192;-40
2022/03/04 07:02:44;;;;;;;25.60;14.63;;;-2.50;99.90;;;;;;4948932;28;20188;-38
2022/03/04 07:05:10;;;;;;;26.17;14.83;;;-2.50;99.90;;;;;;4920982;29;20181;-40
2022/03/04 07:07:36;;;;;;;26.47;15.73;;;-2.40;99.90;;;;;;4926136;29;20264;-40
2022/03/04 07:10:04;;;;;;;25.60;14.33;;;-2.40;99.90;;;;;;4913924;29;20236;-38
2022/03/04 07:12:30;;;;;;;25.57;15.27;;;-2.20;99.90;;;;;;4903030;29;20281;-39
2022/03/04 07:14:56;;;;;;;25.63;15.27;;;-2.10;99.90;;;;;;4904654;29;20182;-38
2022/03/04 07:17:32;;;;;;;30.20;17.10;;;-1.90;99.90;;;;;;4934886;29;20237;-38
2022/03/04 07:20:40;;;;;;;26.80;15.00;;;-1.80;99.90;;;;;;4956914;28;20196;-37
2022/03/04 07:23:06;;;;;;;30.80;15.90;;;-1.70;99.90;;;;;;4924261;29;20490;-41
2022/03/04 07:25:33;;;;;;;26.33;15.93;;;-1.50;99.90;;;;;;4923645;29;20189;-38
2022/03/04 07:28:01;;;;;;;27.60;15.57;;;-1.50;99.90;;;;;;4939205;29;20208;-38
2022/03/04 07:30:28;;;;;;;30.50;17.33;;;-1.50;99.90;;;;;;4938866;29;20181;-37
2022/03/04 07:32:54;;;;;;;27.57;17.17;;;-1.40;99.90;;;;;;4939376;29;20181;-38
2022/03/04 07:35:24;;;;;;;27.57;17.43;;;-1.30;99.90;;;;;;4952171;28;20190;-38
2022/03/04 07:37:52;;;;;;;31.37;17.80;;;-1.20;99.90;;;;;;4958354;28;20212;-38
2022/03/04 07:40:20;;;;;;;35.00;18.83;;;-1.10;99.90;;;;;;4935188;29;20658;-38
2022/03/04 07:42:46;;;;;;;30.73;17.70;;;-1.10;99.90;;;;;;4922365;29;20731;-38
2022/03/04 07:45:14;;;;;;;30.57;18.50;;;-1.00;99.90;;;;;;4935213;29;20272;-38
2022/03/04 07:47:43;;;;;;;31.27;18.50;;;-0.90;99.90;;;;;;4930367;28;20213;-37
2022/03/04 07:50:12;;;;;;;42.13;22.30;;;-0.80;99.90;;;;;;4923178;29;20205;-38
2022/03/04 07:52:38;;;;;;;41.40;21.47;;;-0.70;99.90;;;;;;4936881;28;20185;-38
2022/03/04 07:55:07;;;;;;;38.40;19.20;;;-0.60;99.90;;;;;;4952190;29;20557;-38
2022/03/04 07:57:33;;;;;;;31.80;18.37;;;-0.50;99.90;;;;;;4925895;28;20216;-37
2022/03/04 08:00:01;;;;;;;30.70;18.30;;;-0.40;99.90;;;;;;4924158;28;20289;-42
2022/03/04 08:02:31;;;;;;;26.93;16.93;;;-0.40;99.90;;;;;;4941050;28;20185;-41
2022/03/04 08:04:59;;;;;;;26.90;16.70;;;-0.30;99.90;;;;;;4916645;28;20169;-40
2022/03/04 08:07:28;;;;;;;27.20;16.90;;;-0.20;99.90;;;;;;4923233;28;20181;-39
2022/03/04 08:09:54;;;;;;;26.67;16.37;;;-0.10;99.90;;;;;;4906738;29;20198;-38
2022/03/04 08:12:20;;;;;;;24.93;16.10;;;0.00;99.90;;;;;;4922575;29;20208;-39
2022/03/04 08:14:46;;;;;;;26.40;16.13;;;0.20;99.90;;;;;;4922088;29;20186;-40
2022/03/04 08:17:12;;;;;;;26.10;16.23;;;0.30;99.90;;;;;;4906426;29;20213;-40
2022/03/04 08:19:39;;;;;;;27.00;17.87;;;0.50;99.90;;;;;;4903344;29;20187;-39
2022/03/04 08:22:06;;;;;;;27.67;17.17;;;0.60;99.90;;;;;;4921344;29;20236;-38
2022/03/04 08:24:32;;;;;;;24.37;15.73;;;0.70;99.90;;;;;;4903471;29;20188;-38
2022/03/04 08:26:58;;;;;;;27.50;15.90;;;0.90;99.90;;;;;;4919254;29;20180;-38
2022/03/04 08:29:24;;;;;;;26.03;16.53;;;1.10;99.90;;;;;;4919091;29;20739;-38
2022/03/04 08:31:50;;;;;;;27.23;16.90;;;1.10;99.90;;;;;;4905439;29;20204;-39
2022/03/04 08:34:16;;;;;;;28.37;16.50;;;1.10;99.90;;;;;;4919433;29;20641;-38
2022/03/04 08:36:42;;;;;;;25.57;16.27;;;1.30;99.90;;;;;;4918158;29;20190;-39
2022/03/04 08:39:07;;;;;;;23.53;16.10;;;1.50;99.90;;;;;;4937807;29;20226;-38
2022/03/04 08:41:34;;;;;;;24.13;16.37;;;1.70;99.90;;;;;;4921743;28;20324;-39
2022/03/04 08:44:01;;;;;;;25.53;15.80;;;1.70;99.90;;;;;;4938021;29;20184;-38
2022/03/04 08:46:29;;;;;;;22.97;16.00;;;1.80;99.90;;;;;;4912278;29;20559;-37
2022/03/04 08:48:55;;;;;;;24.93;16.40;;;2.00;99.90;;;;;;4927083;28;20200;-38
2022/03/04 08:51:25;;;;;;;23.90;15.60;;;2.20;99.90;;;;;;4946417;28;20237;-36
2022/03/04 08:53:54;;;;;;;22.67;15.07;;;2.30;99.90;;;;;;4921859;28;20322;-37
2022/03/04 08:56:22;;;;;;;22.73;15.50;;;2.50;99.90;;;;;;4952390;28;20212;-37
2022/03/04 08:58:49;;;;;;;22.67;16.07;;;2.70;99.90;;;;;;4959952;28;20363;-36
2022/03/04 09:01:15;;;;;;;23.60;15.27;;;2.80;99.90;;;;;;4935748;28;20633;-38
2022/03/04 09:03:43;;;;;;;25.37;16.40;;;2.90;99.90;;;;;;4934398;28;20720;-39
2022/03/04 09:06:09;;;;;;;23.63;15.40;;;2.90;99.90;;;;;;4958488;28;20185;-36
2022/03/04 09:08:35;;;;;;;27.07;17.37;;;3.00;99.90;;;;;;4958736;28;20240;-38
2022/03/04 09:11:02;;;;;;;26.20;15.80;;;2.90;99.90;;;;;;4918975;28;20189;-37
2022/03/04 09:13:28;;;;;;;22.97;16.33;;;3.10;99.90;;;;;;4934223;28;20191;-37
2022/03/04 09:15:55;;;;;;;27.63;16.90;;;3.20;99.90;;;;;;4942575;28;20266;-37
2022/03/04 09:18:23;;;;;;;26.23;16.17;;;3.30;99.90;;;;;;4932366;29;20220;-38
2022/03/04 09:20:53;;;;;;;28.60;16.60;;;3.30;99.90;;;;;;4934226;29;20213;-36
2022/03/04 09:23:19;;;;;;;24.70;16.67;;;3.50;99.90;;;;;;4928023;28;20202;-36
2022/03/04 09:25:45;;;;;;;25.50;16.07;;;3.60;99.90;;;;;;4914562;29;20227;-36
2022/03/04 09:28:13;;;;;;;25.90;16.80;;;3.80;99.90;;;;;;4943341;28;20204;-37
2022/03/04 09:30:39;;;;;;;26.57;15.97;;;3.80;99.90;;;;;;4933666;29;20208;-40
2022/03/04 09:33:05;;;;;;;25.60;17.17;;;3.90;99.90;;;;;;4946288;28;20332;-37
2022/03/04 09:35:31;;;;;;;29.83;17.93;;;4.00;99.90;;;;;;4949192;28;20232;-36
2022/03/04 09:37:57;;;;;;;25.30;16.70;;;4.00;99.90;;;;;;4928902;29;20220;-36
2022/03/04 09:40:23;;;;;;;28.63;16.73;;;4.00;99.90;;;;;;4923250;29;20189;-37
2022/03/04 09:42:49;;;;;;;29.13;18.73;;;4.10;99.90;;;;;;4939413;29;20189;-36
2022/03/04 09:45:15;;;;;;;26.67;16.50;;;4.30;99.90;;;;;;4923623;29;20182;-36
2022/03/04 09:47:45;;;;;;;24.30;16.00;;;4.30;99.90;;;;;;4939434;29;20212;-38
2022/03/04 09:50:13;;;;;;;25.37;16.17;;;4.40;99.90;;;;;;4923996;29;20217;-37
2022/03/04 09:52:40;;;;;;;25.67;16.60;;;4.60;99.90;;;;;;4923566;29;20189;-38
2022/03/04 09:55:06;;;;;;;24.23;15.77;;;4.80;99.90;;;;;;4939206;29;20220;-36
2022/03/04 09:57:32;;;;;;;26.40;16.20;;;5.00;99.90;;;;;;4923744;28;20671;-36
2022/03/04 09:59:58;;;;;;;23.23;16.07;;;5.20;99.90;;;;;;4922863;29;20188;-37
2022/03/04 10:02:25;;;;;;;25.07;15.13;;;5.40;99.90;;;;;;4956976;28;20171;-36
2022/03/04 10:04:59;;;;;;;23.87;14.93;;;5.60;99.90;;;;;;4923939;28;20213;-36
2022/03/04 10:07:26;;;;;;;23.93;14.93;;;5.70;99.90;;;;;;4923452;28;20185;-37
2022/03/04 10:09:52;;;;;;;23.73;15.03;;;5.90;99.90;;;;;;4923217;28;20189;-36
2022/03/04 10:12:20;;;;;;;20.67;13.40;;;6.00;99.90;;;;;;4938987;29;20179;-36
2022/03/04 10:15:01;;;;;;;22.73;14.50;;;6.20;99.90;;;;;;4923913;29;20189;-37
2022/03/04 10:17:29;;;;;;;21.67;13.43;;;6.30;99.90;;;;;;4923566;28;20183;-37
2022/03/04 10:19:58;;;;;;;19.23;13.43;;;6.40;99.90;;;;;;4923478;29;20197;-36
2022/03/04 10:22:45;;;;;;;19.43;13.43;;;6.50;99.90;;;;;;4923918;29;20185;-37
2022/03/04 10:25:21;;;;;;;19.67;13.20;;;6.70;99.50;;;;;;4923573;29;20182;-36
2022/03/04 10:27:47;;;;;;;20.50;13.87;;;6.80;98.20;;;;;;4922610;28;20218;-36
2022/03/04 10:30:15;;;;;;;20.27;13.27;;;6.90;98.00;;;;;;4938174;29;20185;-40
2022/03/04 10:32:41;;;;;;;20.07;12.40;;;7.00;96.80;;;;;;4922646;29;20649;-37
2022/03/04 10:35:10;;;;;;;21.17;13.20;;;7.10;97.20;;;;;;4924457;28;20193;-41
2022/03/04 10:37:54;;;;;;;24.70;14.73;;;7.20;97.00;;;;;;4937445;28;20216;-39
2022/03/04 10:40:25;;;;;;;21.33;13.83;;;7.00;96.80;;;;;;4936674;28;20224;-41
2022/03/04 10:43:05;;;;;;;22.10;13.27;;;7.20;96.90;;;;;;4922364;29;20177;-39
2022/03/04 10:45:35;;;;;;;19.23;14.17;;;7.30;95.40;;;;;;4906963;29;20196;-40
2022/03/04 10:48:11;;;;;;;19.07;12.90;;;7.40;96.40;;;;;;4946802;28;20212;-37
2022/03/04 10:50:49;;;;;;;19.60;12.47;;;7.40;94.00;;;;;;4946374;28;20266;-39
2022/03/04 10:53:23;;;;;;;18.97;12.37;;;7.40;94.70;;;;;;4928193;28;20219;-39
2022/03/04 10:55:53;;;;;;;18.63;11.67;;;7.60;95.10;;;;;;4930494;28;20187;-39
2022/03/04 10:58:20;;;;;;;21.13;12.57;;;7.60;92.90;;;;;;4924729;28;20217;-37
2022/03/04 11:00:53;;;;;;;18.90;12.33;;;7.60;94.10;;;;;;4916673;29;20180;-39
2022/03/04 11:03:26;;;;;;;18.60;12.97;;;7.80;93.60;;;;;;4945850;28;20181;-37
2022/03/04 11:05:57;;;;;;;17.07;12.33;;;7.80;93.00;;;;;;4924917;28;20187;-39
2022/03/04 11:08:24;;;;;;;20.63;12.80;;;7.90;93.90;;;;;;4926950;28;20233;-36
2022/03/04 11:10:52;;;;;;;20.67;12.53;;;8.00;92.60;;;;;;4942039;28;20238;-37
2022/03/04 11:13:19;;;;;;;20.47;13.33;;;8.10;93.60;;;;;;4922724;28;20207;-39
2022/03/04 11:15:47;;;;;;;18.90;13.27;;;8.30;93.50;;;;;;4914201;28;20189;-40
2022/03/04 11:18:15;;;;;;;21.87;13.23;;;8.50;93.70;;;;;;4931553;29;20217;-36
2022/03/04 11:20:42;;;;;;;22.40;13.67;;;8.60;92.30;;;;;;4935816;29;20189;-40
2022/03/04 11:23:16;;;;;;;20.00;13.20;;;8.50;93.00;;;;;;4934639;29;20185;-39
2022/03/04 11:25:44;;;;;;;19.57;13.57;;;8.60;92.30;;;;;;4948910;28;20184;-36
2022/03/04 11:28:18;;;;;;;21.33;13.30;;;8.70;92.80;;;;;;4956514;28;20204;-37
2022/03/04 11:30:49;;;;;;;17.97;12.67;;;8.90;93.00;;;;;;4973076;28;20190;-36
2022/03/04 11:33:21;;;;;;;20.13;12.57;;;9.10;92.50;;;;;;4956722;28;20183;-37
2022/03/04 11:36:03;;;;;;;19.10;12.53;;;9.10;92.20;;;;;;4940574;28;20185;-36
2022/03/04 11:38:47;;;;;;;18.43;11.97;;;9.30;91.70;;;;;;4939758;28;20347;-40
2022/03/04 11:41:26;;;;;;;20.83;13.10;;;9.40;92.00;;;;;;4942755;29;20598;-37
2022/03/04 11:44:19;;;;;;;18.43;12.67;;;9.50;90.80;;;;;;4922843;29;20257;-36
2022/03/04 11:46:55;;;;;;;19.20;13.00;;;9.70;91.60;;;;;;4938304;28;20170;-36
2022/03/04 11:49:43;;;;;;;17.67;12.03;;;9.70;90.30;;;;;;4954152;28;20197;-37
2022/03/04 11:52:09;;;;;;;24.07;14.23;;;9.60;89.30;;;;;;4941096;28;20185;-36
2022/03/04 11:54:41;;;;;;;20.37;13.43;;;9.50;90.40;;;;;;4936796;28;20185;-39
2022/03/04 11:57:27;;;;;;;19.10;12.63;;;9.10;90.80;;;;;;4944243;29;20185;-37
2022/03/04 12:00:00;;;;;;;17.23;12.23;;;9.40;90.70;;;;;;4934578;28;20188;-38
2022/03/04 12:02:42;;;;;;;19.17;12.80;;;9.50;88.20;;;;;;4935848;28;20188;-37
2022/03/04 12:07:47;;;;;;;18.73;12.30;;;9.70;89.60;;;;;;4947898;28;20200;-37
2022/03/04 12:10:20;;;;;;;21.00;12.83;;;9.80;86.70;;;;;;4936829;29;20189;-36
2022/03/04 12:12:58;;;;;;;17.90;12.43;;;9.90;88.10;;;;;;4913200;29;20185;-37
2022/03/04 12:15:24;;;;;;;18.37;12.00;;;10.10;88.40;;;;;;4934639;29;20181;-37
2022/03/04 12:18:04;;;;;;;20.57;13.30;;;10.00;86.60;;;;;;4927567;29;20212;-37
2022/03/04 12:20:42;;;;;;;21.33;13.30;;;10.20;88.30;;;;;;4942485;29;20240;-37
2022/03/04 12:23:17;;;;;;;18.27;12.90;;;10.40;88.00;;;;;;4943764;29;20177;-37
2022/03/04 12:25:54;;;;;;;18.70;13.17;;;10.60;87.20;;;;;;4928084;29;20270;-38
2022/03/04 12:28:23;;;;;;;21.77;13.63;;;10.70;87.70;;;;;;4906535;29;20213;-37
2022/03/04 12:31:12;;;;;;;18.03;12.67;;;10.70;85.90;;;;;;4901506;29;20209;-38
2022/03/04 12:33:40;;;;;;;18.57;12.47;;;10.80;85.20;;;;;;4917654;29;20218;-37
2022/03/04 12:36:08;;;;;;;15.90;11.40;;;10.90;86.10;;;;;;4901808;29;20229;-37
2022/03/04 12:38:46;;;;;;;17.50;12.00;;;11.00;84.70;;;;;;4917180;29;20230;-36
2022/03/04 12:41:16;;;;;;;16.37;11.33;;;11.10;83.50;;;;;;4914617;29;20216;-37